sensor_id;sensor_type;location;lat;lon;timestamp;temperature;humidity
60473;DHT22;46318;52.716;6.444;2023-02-28T00:01:18;3.60;99.90
60473;DHT22;46318;52.716;6.444;2023-02-28T00:03:43;3.50;99.90
60473;DHT22;46318;52.716;6.444;2023-02-28T00:06:10;3.60;99.90
60473;DHT22;46318;52.716;6.444;2023-02-28T00:08:36;3.60;99.90
60473;DHT22;46318;52.716;6.444;2023-02-28T00:11:06;3.50;99.90
60473;DHT22;46318;52.716;6.444;2023-02-28T00:13:40;3.60;99.90
60473;DHT22;46318;52.716;6.444;2023-02-28T00:16:13;3.50;99.90
60473;DHT22;46318;52.716;6.444;2023-02-28T00:18:46;3.60;99.90
60473;DHT22;46318;52.716;6.444;2023-02-28T00:21:13;3.50;99.90
60473;DHT22;46318;52.716;6.444;2023-02-28T00:23:40;3.60;99.90
60473;DHT22;46318;52.716;6.444;2023-02-28T00:26:06;3.50;99.90
60473;DHT22;46318;52.716;6.444;2023-02-28T00:28:32;3.60;99.90
60473;DHT22;46318;52.716;6.444;2023-02-28T00:30:58;3.50;99.90
60473;DHT22;46318;52.716;6.444;2023-02-28T00:33:25;3.60;99.90
60473;DHT22;46318;52.716;6.444;2023-02-28T00:35:52;3.60;99.90
60473;DHT22;46318;52.716;6.444;2023-02-28T00:38:27;3.60;99.90
60473;DHT22;46318;52.716;6.444;2023-02-28T00:40:52;3.60;99.90
60473;DHT22;46318;52.716;6.444;2023-02-28T00:43:18;3.60;99.90
60473;DHT22;46318;52.716;6.444;2023-02-28T00:45:44;3.50;99.90
60473;DHT22;46318;52.716;6.444;2023-02-28T00:48:10;3.60;99.90
60473;DHT22;46318;52.716;6.444;2023-02-28T00:50:36;3.50;99.90
60473;DHT22;46318;52.716;6.444;2023-02-28T00:53:01;3.60;99.90
60473;DHT22;46318;52.716;6.444;2023-02-28T00:55:27;3.60;99.90
60473;DHT22;46318;52.716;6.444;2023-02-28T00:57:53;3.60;99.90
60473;DHT22;46318;52.716;6.444;2023-02-28T01:00:19;3.60;99.90
60473;DHT22;46318;52.716;6.444;2023-02-28T01:02:45;3.60;99.90
60473;DHT22;46318;52.716;6.444;2023-02-28T01:05:11;3.60;99.90
60473;DHT22;46318;52.716;6.444;2023-02-28T01:07:37;3.60;99.90
60473;DHT22;46318;52.716;6.444;2023-02-28T01:10:04;3.60;99.90
60473;DHT22;46318;52.716;6.444;2023-02-28T01:12:30;3.60;99.90
60473;DHT22;46318;52.716;6.444;2023-02-28T01:14:56;3.60;99.90
60473;DHT22;46318;52.716;6.444;2023-02-28T01:17:21;3.60;99.90
60473;DHT22;46318;52.716;6.444;2023-02-28T01:19:47;3.60;99.90
60473;DHT22;46318;52.716;6.444;2023-02-28T01:22:13;3.60;99.90
60473;DHT22;46318;52.716;6.444;2023-02-28T01:24:39;3.60;99.90
60473;DHT22;46318;52.716;6.444;2023-02-28T01:27:05;3.60;99.90
60473;DHT22;46318;52.716;6.444;2023-02-28T01:29:30;3.70;99.90
60473;DHT22;46318;52.716;6.444;2023-02-28T01:31:56;3.60;99.90
60473;DHT22;46318;52.716;6.444;2023-02-28T01:34:24;3.60;99.90
60473;DHT22;46318;52.716;6.444;2023-02-28T01:36:50;3.60;99.90
60473;DHT22;46318;52.716;6.444;2023-02-28T01:39:16;3.60;99.90
60473;DHT22;46318;52.716;6.444;2023-02-28T01:41:42;3.70;99.90
60473;DHT22;46318;52.716;6.444;2023-02-28T01:47:27;3.70;99.90
60473;DHT22;46318;52.716;6.444;2023-02-28T01:49:56;3.60;99.90
60473;DHT22;46318;52.716;6.444;2023-02-28T01:52:22;3.60;99.90
60473;DHT22;46318;52.716;6.444;2023-02-28T01:54:56;3.70;99.90
60473;DHT22;46318;52.716;6.444;2023-02-28T01:57:27;3.70;99.90
60473;DHT22;46318;52.716;6.444;2023-02-28T01:59:57;3.70;99.90
60473;DHT22;46318;52.716;6.444;2023-02-28T02:02:27;3.70;99.90
60473;DHT22;46318;52.716;6.444;2023-02-28T02:05:03;3.60;99.90
60473;DHT22;46318;52.716;6.444;2023-02-28T02:07:32;3.70;99.90
60473;DHT22;46318;52.716;6.444;2023-02-28T02:15:31;3.70;99.90
60473;DHT22;46318;52.716;6.444;2023-02-28T02:18:23;3.60;99.90
60473;DHT22;46318;52.716;6.444;2023-02-28T02:36:07;3.60;99.90
60473;DHT22;46318;52.716;6.444;2023-02-28T02:39:07;3.60;99.90
60473;DHT22;46318;52.716;6.444;2023-02-28T02:41:51;3.60;99.90
60473;DHT22;46318;52.716;6.444;2023-02-28T02:44:26;3.60;99.90
60473;DHT22;46318;52.716;6.444;2023-02-28T02:47:09;3.60;99.90
60473;DHT22;46318;52.716;6.444;2023-02-28T02:49:39;3.60;99.90
60473;DHT22;46318;52.716;6.444;2023-02-28T02:52:11;3.60;99.90
60473;DHT22;46318;52.716;6.444;2023-02-28T02:54:41;3.60;99.90
60473;DHT22;46318;52.716;6.444;2023-02-28T02:57:15;3.50;99.90
60473;DHT22;46318;52.716;6.444;2023-02-28T02:59:47;3.50;99.90
60473;DHT22;46318;52.716;6.444;2023-02-28T03:02:16;3.50;99.90
60473;DHT22;46318;52.716;6.444;2023-02-28T03:04:47;3.50;99.90
60473;DHT22;46318;52.716;6.444;2023-02-28T03:07:16;3.50;99.90
60473;DHT22;46318;52.716;6.444;2023-02-28T03:09:56;3.50;99.90
60473;DHT22;46318;52.716;6.444;2023-02-28T03:12:46;3.50;99.90
60473;DHT22;46318;52.716;6.444;2023-02-28T03:15:27;3.50;99.90
60473;DHT22;46318;52.716;6.444;2023-02-28T03:18:10;3.50;99.90
60473;DHT22;46318;52.716;6.444;2023-02-28T03:21:01;3.50;99.90
60473;DHT22;46318;52.716;6.444;2023-02-28T03:26:24;3.50;99.90
60473;DHT22;46318;52.716;6.444;2023-02-28T03:29:13;3.50;99.90
60473;DHT22;46318;52.716;6.444;2023-02-28T03:32:00;3.50;99.90
60473;DHT22;46318;52.716;6.444;2023-02-28T03:34:34;3.50;99.90
60473;DHT22;46318;52.716;6.444;2023-02-28T03:37:09;3.40;99.90
60473;DHT22;46318;52.716;6.444;2023-02-28T03:39:41;3.40;99.90
60473;DHT22;46318;52.716;6.444;2023-02-28T03:42:13;3.40;99.90
60473;DHT22;46318;52.716;6.444;2023-02-28T03:48:01;3.40;99.90
60473;DHT22;46318;52.716;6.444;2023-02-28T03:50:49;3.40;99.90
60473;DHT22;46318;52.716;6.444;2023-02-28T03:53:20;3.40;99.90
60473;DHT22;46318;52.716;6.444;2023-02-28T03:55:56;3.40;99.90
60473;DHT22;46318;52.716;6.444;2023-02-28T04:01:39;3.40;99.90
60473;DHT22;46318;52.716;6.444;2023-02-28T04:04:08;3.40;99.90
60473;DHT22;46318;52.716;6.444;2023-02-28T04:06:35;3.40;99.90
60473;DHT22;46318;52.716;6.444;2023-02-28T04:09:02;3.40;99.90
60473;DHT22;46318;52.716;6.444;2023-02-28T04:11:44;3.40;99.90
60473;DHT22;46318;52.716;6.444;2023-02-28T04:14:11;3.40;99.90
60473;DHT22;46318;52.716;6.444;2023-02-28T04:16:40;3.40;99.90
60473;DHT22;46318;52.716;6.444;2023-02-28T04:19:08;3.40;99.90
60473;DHT22;46318;52.716;6.444;2023-02-28T04:21:37;3.40;99.90
60473;DHT22;46318;52.716;6.444;2023-02-28T04:24:06;3.40;99.90
60473;DHT22;46318;52.716;6.444;2023-02-28T04:26:40;3.40;99.90
60473;DHT22;46318;52.716;6.444;2023-02-28T04:29:10;3.40;99.90
60473;DHT22;46318;52.716;6.444;2023-02-28T04:31:37;3.40;99.90
60473;DHT22;46318;52.716;6.444;2023-02-28T04:34:04;3.40;99.90
60473;DHT22;46318;52.716;6.444;2023-02-28T04:36:30;3.30;99.90
60473;DHT22;46318;52.716;6.444;2023-02-28T04:38:56;3.30;99.90
60473;DHT22;46318;52.716;6.444;2023-02-28T04:41:22;3.30;99.90
60473;DHT22;46318;52.716;6.444;2023-02-28T04:43:48;3.30;99.90
60473;DHT22;46318;52.716;6.444;2023-02-28T04:46:14;3.30;99.90
60473;DHT22;46318;52.716;6.444;2023-02-28T04:48:40;3.30;99.90
60473;DHT22;46318;52.716;6.444;2023-02-28T04:51:09;3.30;99.90
60473;DHT22;46318;52.716;6.444;2023-02-28T04:53:38;3.30;99.90
60473;DHT22;46318;52.716;6.444;2023-02-28T04:56:05;3.30;99.90
60473;DHT22;46318;52.716;6.444;2023-02-28T04:58:32;3.30;99.90
60473;DHT22;46318;52.716;6.444;2023-02-28T05:03:53;3.30;99.90
60473;DHT22;46318;52.716;6.444;2023-02-28T05:06:21;3.30;99.90
60473;DHT22;46318;52.716;6.444;2023-02-28T05:08:49;3.30;99.90
60473;DHT22;46318;52.716;6.444;2023-02-28T05:11:30;3.20;99.90
60473;DHT22;46318;52.716;6.444;2023-02-28T05:14:06;3.30;99.90
60473;DHT22;46318;52.716;6.444;2023-02-28T05:16:36;3.20;99.90
60473;DHT22;46318;52.716;6.444;2023-02-28T05:19:02;3.20;99.90
60473;DHT22;46318;52.716;6.444;2023-02-28T05:21:31;3.20;99.90
60473;DHT22;46318;52.716;6.444;2023-02-28T05:24:02;3.20;99.90
60473;DHT22;46318;52.716;6.444;2023-02-28T05:26:30;3.20;99.90
60473;DHT22;46318;52.716;6.444;2023-02-28T05:28:59;3.20;99.90
60473;DHT22;46318;52.716;6.444;2023-02-28T05:31:24;3.20;99.90
60473;DHT22;46318;52.716;6.444;2023-02-28T05:33:50;3.20;99.90
60473;DHT22;46318;52.716;6.444;2023-02-28T05:36:17;3.20;99.90
60473;DHT22;46318;52.716;6.444;2023-02-28T05:38:43;3.20;99.90
60473;DHT22;46318;52.716;6.444;2023-02-28T05:41:11;3.20;99.90
60473;DHT22;46318;52.716;6.444;2023-02-28T05:43:37;3.20;99.90
60473;DHT22;46318;52.716;6.444;2023-02-28T05:46:08;3.20;99.90
60473;DHT22;46318;52.716;6.444;2023-02-28T05:48:37;3.20;99.90
60473;DHT22;46318;52.716;6.444;2023-02-28T05:51:04;3.10;99.90
60473;DHT22;46318;52.716;6.444;2023-02-28T05:53:31;3.20;99.90
60473;DHT22;46318;52.716;6.444;2023-02-28T05:55:57;3.20;99.90
60473;DHT22;46318;52.716;6.444;2023-02-28T05:58:24;3.20;99.90
60473;DHT22;46318;52.716;6.444;2023-02-28T06:00:56;3.10;99.90
60473;DHT22;46318;52.716;6.444;2023-02-28T06:03:23;3.10;99.90
60473;DHT22;46318;52.716;6.444;2023-02-28T06:05:49;3.20;99.90
60473;DHT22;46318;52.716;6.444;2023-02-28T06:08:16;3.10;99.90
60473;DHT22;46318;52.716;6.444;2023-02-28T06:10:41;3.10;99.90
60473;DHT22;46318;52.716;6.444;2023-02-28T06:13:07;3.10;99.90
60473;DHT22;46318;52.716;6.444;2023-02-28T06:15:34;3.10;99.90
60473;DHT22;46318;52.716;6.444;2023-02-28T06:18:00;3.10;99.90
60473;DHT22;46318;52.716;6.444;2023-02-28T06:20:27;3.10;99.90
60473;DHT22;46318;52.716;6.444;2023-02-28T06:22:57;3.10;99.90
60473;DHT22;46318;52.716;6.444;2023-02-28T06:25:25;3.10;99.90
60473;DHT22;46318;52.716;6.444;2023-02-28T06:27:52;3.10;99.90
60473;DHT22;46318;52.716;6.444;2023-02-28T06:30:18;3.00;99.90
60473;DHT22;46318;52.716;6.444;2023-02-28T06:32:49;3.00;99.90
60473;DHT22;46318;52.716;6.444;2023-02-28T06:35:15;3.00;99.90
60473;DHT22;46318;52.716;6.444;2023-02-28T06:37:41;3.00;99.90
60473;DHT22;46318;52.716;6.444;2023-02-28T06:40:12;3.00;99.90
60473;DHT22;46318;52.716;6.444;2023-02-28T06:42:38;3.00;99.90
60473;DHT22;46318;52.716;6.444;2023-02-28T06:45:05;3.00;99.90
60473;DHT22;46318;52.716;6.444;2023-02-28T06:47:35;3.00;99.90
60473;DHT22;46318;52.716;6.444;2023-02-28T06:50:02;2.90;99.90
60473;DHT22;46318;52.716;6.444;2023-02-28T06:52:29;2.90;99.90
60473;DHT22;46318;52.716;6.444;2023-02-28T06:54:55;3.00;99.90
60473;DHT22;46318;52.716;6.444;2023-02-28T06:57:32;2.90;99.90
60473;DHT22;46318;52.716;6.444;2023-02-28T07:00:00;2.90;99.90
60473;DHT22;46318;52.716;6.444;2023-02-28T07:02:28;2.90;99.90
60473;DHT22;46318;52.716;6.444;2023-02-28T07:04:54;2.90;99.90
60473;DHT22;46318;52.716;6.444;2023-02-28T07:07:20;2.90;99.90
60473;DHT22;46318;52.716;6.444;2023-02-28T07:09:46;2.90;99.90
60473;DHT22;46318;52.716;6.444;2023-02-28T07:12:12;2.90;99.90
60473;DHT22;46318;52.716;6.444;2023-02-28T07:14:38;2.90;99.90
60473;DHT22;46318;52.716;6.444;2023-02-28T07:17:06;2.90;99.90
60473;DHT22;46318;52.716;6.444;2023-02-28T07:19:32;2.90;99.90
60473;DHT22;46318;52.716;6.444;2023-02-28T07:21:58;2.90;99.90
60473;DHT22;46318;52.716;6.444;2023-02-28T07:24:24;2.90;99.90
60473;DHT22;46318;52.716;6.444;2023-02-28T07:26:53;2.90;99.90
60473;DHT22;46318;52.716;6.444;2023-02-28T07:29:19;2.90;99.90
60473;DHT22;46318;52.716;6.444;2023-02-28T07:31:45;2.90;99.90
60473;DHT22;46318;52.716;6.444;2023-02-28T07:34:12;2.90;99.90
60473;DHT22;46318;52.716;6.444;2023-02-28T07:36:39;2.90;99.90
60473;DHT22;46318;52.716;6.444;2023-02-28T07:39:05;2.90;99.90
60473;DHT22;46318;52.716;6.444;2023-02-28T07:41:31;2.90;99.90
60473;DHT22;46318;52.716;6.444;2023-02-28T07:43:59;2.90;99.90
60473;DHT22;46318;52.716;6.444;2023-02-28T07:46:26;2.90;99.90
60473;DHT22;46318;52.716;6.444;2023-02-28T07:48:52;2.90;99.90
60473;DHT22;46318;52.716;6.444;2023-02-28T07:51:19;2.90;99.90
60473;DHT22;46318;52.716;6.444;2023-02-28T07:53:46;3.00;99.90
60473;DHT22;46318;52.716;6.444;2023-02-28T07:56:12;3.00;99.90
60473;DHT22;46318;52.716;6.444;2023-02-28T07:58:37;3.00;99.90
60473;DHT22;46318;52.716;6.444;2023-02-28T08:01:08;3.10;99.90
60473;DHT22;46318;52.716;6.444;2023-02-28T08:03:36;3.10;99.90
60473;DHT22;46318;52.716;6.444;2023-02-28T08:06:04;3.10;99.90
60473;DHT22;46318;52.716;6.444;2023-02-28T08:08:30;3.20;99.90
60473;DHT22;46318;52.716;6.444;2023-02-28T08:11:01;3.20;99.90
60473;DHT22;46318;52.716;6.444;2023-02-28T08:13:29;3.30;99.90
60473;DHT22;46318;52.716;6.444;2023-02-28T08:15:55;3.30;99.90
60473;DHT22;46318;52.716;6.444;2023-02-28T08:18:22;3.40;99.90
60473;DHT22;46318;52.716;6.444;2023-02-28T08:20:48;3.40;99.90
60473;DHT22;46318;52.716;6.444;2023-02-28T08:23:14;3.40;99.90
60473;DHT22;46318;52.716;6.444;2023-02-28T08:25:40;3.40;99.90
60473;DHT22;46318;52.716;6.444;2023-02-28T08:28:06;3.40;99.90
60473;DHT22;46318;52.716;6.444;2023-02-28T08:30:32;3.40;99.90
60473;DHT22;46318;52.716;6.444;2023-02-28T08:32:58;3.50;99.90
60473;DHT22;46318;52.716;6.444;2023-02-28T08:35:24;3.50;99.90
60473;DHT22;46318;52.716;6.444;2023-02-28T08:37:50;3.50;99.90
60473;DHT22;46318;52.716;6.444;2023-02-28T08:40:16;3.60;99.90
60473;DHT22;46318;52.716;6.444;2023-02-28T08:42:47;3.60;99.90
60473;DHT22;46318;52.716;6.444;2023-02-28T08:45:15;3.60;99.90
60473;DHT22;46318;52.716;6.444;2023-02-28T08:47:41;3.70;99.90
60473;DHT22;46318;52.716;6.444;2023-02-28T08:50:08;3.70;99.90
60473;DHT22;46318;52.716;6.444;2023-02-28T08:52:34;3.70;99.90
60473;DHT22;46318;52.716;6.444;2023-02-28T08:55:00;3.80;99.90
60473;DHT22;46318;52.716;6.444;2023-02-28T08:57:26;3.80;99.90
60473;DHT22;46318;52.716;6.444;2023-02-28T08:59:52;3.90;99.90
60473;DHT22;46318;52.716;6.444;2023-02-28T09:02:18;4.00;99.90
60473;DHT22;46318;52.716;6.444;2023-02-28T09:04:45;4.10;99.90
60473;DHT22;46318;52.716;6.444;2023-02-28T09:07:11;4.20;99.90
60473;DHT22;46318;52.716;6.444;2023-02-28T09:09:37;4.30;99.90
60473;DHT22;46318;52.716;6.444;2023-02-28T09:12:27;4.40;99.90
60473;DHT22;46318;52.716;6.444;2023-02-28T09:14:53;4.50;99.90
60473;DHT22;46318;52.716;6.444;2023-02-28T09:17:20;4.50;99.90
60473;DHT22;46318;52.716;6.444;2023-02-28T09:19:48;4.60;99.90
60473;DHT22;46318;52.716;6.444;2023-02-28T09:22:14;4.60;99.90
60473;DHT22;46318;52.716;6.444;2023-02-28T09:24:40;4.60;99.90
60473;DHT22;46318;52.716;6.444;2023-02-28T09:27:06;4.60;99.90
60473;DHT22;46318;52.716;6.444;2023-02-28T09:29:33;4.60;99.90
60473;DHT22;46318;52.716;6.444;2023-02-28T09:31:59;4.70;99.90
60473;DHT22;46318;52.716;6.444;2023-02-28T09:34:27;4.70;99.90
60473;DHT22;46318;52.716;6.444;2023-02-28T09:36:54;4.70;99.90
60473;DHT22;46318;52.716;6.444;2023-02-28T09:39:22;4.70;99.90
60473;DHT22;46318;52.716;6.444;2023-02-28T09:41:53;4.80;99.90
60473;DHT22;46318;52.716;6.444;2023-02-28T09:47:12;4.90;99.90
60473;DHT22;46318;52.716;6.444;2023-02-28T09:49:50;5.00;99.90
60473;DHT22;46318;52.716;6.444;2023-02-28T09:52:23;5.20;99.90
60473;DHT22;46318;52.716;6.444;2023-02-28T09:54:53;5.30;99.90
60473;DHT22;46318;52.716;6.444;2023-02-28T09:57:36;5.40;99.90
60473;DHT22;46318;52.716;6.444;2023-02-28T10:05:54;5.70;99.90
60473;DHT22;46318;52.716;6.444;2023-02-28T10:11:29;5.80;99.90
60473;DHT22;46318;52.716;6.444;2023-02-28T10:14:02;5.90;99.90
60473;DHT22;46318;52.716;6.444;2023-02-28T10:17:12;5.90;99.90
60473;DHT22;46318;52.716;6.444;2023-02-28T10:22:58;6.10;99.30
60473;DHT22;46318;52.716;6.444;2023-02-28T10:25:46;6.20;98.90
60473;DHT22;46318;52.716;6.444;2023-02-28T10:28:17;6.30;98.30
60473;DHT22;46318;52.716;6.444;2023-02-28T10:30:48;6.40;98.20
60473;DHT22;46318;52.716;6.444;2023-02-28T10:33:32;6.50;97.10
60473;DHT22;46318;52.716;6.444;2023-02-28T10:36:03;6.50;97.30
60473;DHT22;46318;52.716;6.444;2023-02-28T10:38:33;6.60;96.80
60473;DHT22;46318;52.716;6.444;2023-02-28T10:41:09;6.60;96.00
60473;DHT22;46318;52.716;6.444;2023-02-28T10:43:41;6.70;96.00
60473;DHT22;46318;52.716;6.444;2023-02-28T10:46:15;6.70;96.30
60473;DHT22;46318;52.716;6.444;2023-02-28T10:49:04;6.80;96.20
60473;DHT22;46318;52.716;6.444;2023-02-28T10:51:37;6.90;95.70
60473;DHT22;46318;52.716;6.444;2023-02-28T10:54:04;7.00;95.80
60473;DHT22;46318;52.716;6.444;2023-02-28T10:56:31;7.00;95.50
60473;DHT22;46318;52.716;6.444;2023-02-28T10:59:43;7.10;95.80
60473;DHT22;46318;52.716;6.444;2023-02-28T11:01:53;7.20;95.10
60473;DHT22;46318;52.716;6.444;2023-02-28T11:04:33;7.20;95.20
60473;DHT22;46318;52.716;6.444;2023-02-28T11:07:20;7.30;93.90
60473;DHT22;46318;52.716;6.444;2023-02-28T11:09:55;7.40;94.00
60473;DHT22;46318;52.716;6.444;2023-02-28T11:12:36;7.40;93.90
60473;DHT22;46318;52.716;6.444;2023-02-28T11:15:18;7.50;94.00
60473;DHT22;46318;52.716;6.444;2023-02-28T11:20:33;7.60;93.50
60473;DHT22;46318;52.716;6.444;2023-02-28T11:23:02;7.70;92.90
60473;DHT22;46318;52.716;6.444;2023-02-28T11:25:32;7.80;92.00
60473;DHT22;46318;52.716;6.444;2023-02-28T11:28:01;7.80;91.20
60473;DHT22;46318;52.716;6.444;2023-02-28T11:30:39;7.80;91.00
60473;DHT22;46318;52.716;6.444;2023-02-28T11:33:31;7.90;90.40
60473;DHT22;46318;52.716;6.444;2023-02-28T11:36:12;8.00;90.10
60473;DHT22;46318;52.716;6.444;2023-02-28T11:38:39;8.00;90.00
60473;DHT22;46318;52.716;6.444;2023-02-28T11:44:09;8.10;82.40
60473;DHT22;46318;52.716;6.444;2023-02-28T11:46:41;8.10;84.80
60473;DHT22;46318;52.716;6.444;2023-02-28T11:53:00;8.30;76.80
60473;DHT22;46318;52.716;6.444;2023-02-28T11:55:35;8.40;85.40
60473;DHT22;46318;52.716;6.444;2023-02-28T12:19:16;8.80;70.80
60473;DHT22;46318;52.716;6.444;2023-02-28T12:22:18;8.80;70.40
60473;DHT22;46318;52.716;6.444;2023-02-28T12:27:39;8.90;76.00
60473;DHT22;46318;52.716;6.444;2023-02-28T12:32:55;8.90;73.20
60473;DHT22;46318;52.716;6.444;2023-02-28T12:35:52;9.00;67.90
60473;DHT22;46318;52.716;6.444;2023-02-28T12:38:34;9.10;68.00
60473;DHT22;46318;52.716;6.444;2023-02-28T12:41:09;9.20;69.60
60473;DHT22;46318;52.716;6.444;2023-02-28T12:44:09;9.30;72.60
60473;DHT22;46318;52.716;6.444;2023-02-28T12:47:02;9.30;71.70
60473;DHT22;46318;52.716;6.444;2023-02-28T12:49:37;9.40;71.10
60473;DHT22;46318;52.716;6.444;2023-02-28T12:52:07;9.50;69.00
60473;DHT22;46318;52.716;6.444;2023-02-28T12:54:51;9.50;69.10
60473;DHT22;46318;52.716;6.444;2023-02-28T12:57:33;9.50;64.00
60473;DHT22;46318;52.716;6.444;2023-02-28T13:00:23;9.60;65.90
60473;DHT22;46318;52.716;6.444;2023-02-28T13:06:14;9.70;57.00
60473;DHT22;46318;52.716;6.444;2023-02-28T13:09:05;9.70;61.40
60473;DHT22;46318;52.716;6.444;2023-02-28T13:11:51;9.80;57.60
60473;DHT22;46318;52.716;6.444;2023-02-28T13:14:35;9.90;59.10
60473;DHT22;46318;52.716;6.444;2023-02-28T13:19:43;10.00;58.10
60473;DHT22;46318;52.716;6.444;2023-02-28T13:24:57;10.20;57.80
60473;DHT22;46318;52.716;6.444;2023-02-28T13:29:52;10.30;59.00
60473;DHT22;46318;52.716;6.444;2023-02-28T13:39:55;10.30;55.00
60473;DHT22;46318;52.716;6.444;2023-02-28T13:42:23;10.30;56.10
60473;DHT22;46318;52.716;6.444;2023-02-28T13:59:06;10.20;56.50
60473;DHT22;46318;52.716;6.444;2023-02-28T14:04:41;10.00;57.40
60473;DHT22;46318;52.716;6.444;2023-02-28T14:07:19;9.80;55.20
60473;DHT22;46318;52.716;6.444;2023-02-28T14:10:08;9.60;58.20
60473;DHT22;46318;52.716;6.444;2023-02-28T14:18:33;9.10;59.50
60473;DHT22;46318;52.716;6.444;2023-02-28T14:21:16;9.00;58.60
60473;DHT22;46318;52.716;6.444;2023-02-28T14:38:05;8.50;58.70
60473;DHT22;46318;52.716;6.444;2023-02-28T14:40:34;8.40;61.40
60473;DHT22;46318;52.716;6.444;2023-02-28T14:43:03;8.30;62.30
60473;DHT22;46318;52.716;6.444;2023-02-28T14:45:32;8.30;63.50
60473;DHT22;46318;52.716;6.444;2023-02-28T14:48:01;8.30;64.90
60473;DHT22;46318;52.716;6.444;2023-02-28T14:50:34;8.30;65.40
60473;DHT22;46318;52.716;6.444;2023-02-28T14:53:01;8.20;64.60
60473;DHT22;46318;52.716;6.444;2023-02-28T14:55:30;8.20;65.90
60473;DHT22;46318;52.716;6.444;2023-02-28T14:58:00;8.10;66.80
60473;DHT22;46318;52.716;6.444;2023-02-28T15:00:35;8.10;68.30
60473;DHT22;46318;52.716;6.444;2023-02-28T15:03:19;8.10;67.00
60473;DHT22;46318;52.716;6.444;2023-02-28T15:05:54;8.10;67.10
60473;DHT22;46318;52.716;6.444;2023-02-28T15:08:22;8.10;67.90
60473;DHT22;46318;52.716;6.444;2023-02-28T15:13:49;8.00;68.20
60473;DHT22;46318;52.716;6.444;2023-02-28T15:16:22;8.00;68.20
60473;DHT22;46318;52.716;6.444;2023-02-28T15:19:02;7.90;67.00
60473;DHT22;46318;52.716;6.444;2023-02-28T15:21:43;7.80;67.10
60473;DHT22;46318;52.716;6.444;2023-02-28T15:24:39;7.80;67.90
60473;DHT22;46318;52.716;6.444;2023-02-28T15:27:28;7.80;68.40
60473;DHT22;46318;52.716;6.444;2023-02-28T15:29:59;7.70;67.40
60473;DHT22;46318;52.716;6.444;2023-02-28T15:32:34;7.70;71.20
60473;DHT22;46318;52.716;6.444;2023-02-28T15:38:00;7.60;70.60
60473;DHT22;46318;52.716;6.444;2023-02-28T15:45:56;7.50;72.30
60473;DHT22;46318;52.716;6.444;2023-02-28T15:48:29;7.50;72.00
60473;DHT22;46318;52.716;6.444;2023-02-28T15:54:01;7.40;71.20
60473;DHT22;46318;52.716;6.444;2023-02-28T15:56:55;7.40;71.50
60473;DHT22;46318;52.716;6.444;2023-02-28T15:59:27;7.40;71.10
60473;DHT22;46318;52.716;6.444;2023-02-28T16:05:01;7.30;71.10
60473;DHT22;46318;52.716;6.444;2023-02-28T16:07:35;7.30;73.10
60473;DHT22;46318;52.716;6.444;2023-02-28T16:10:03;7.20;74.30
60473;DHT22;46318;52.716;6.444;2023-02-28T16:12:33;7.20;75.10
60473;DHT22;46318;52.716;6.444;2023-02-28T16:17:48;7.20;75.20
60473;DHT22;46318;52.716;6.444;2023-02-28T16:20:18;7.20;77.90
60473;DHT22;46318;52.716;6.444;2023-02-28T16:22:46;7.10;78.90
60473;DHT22;46318;52.716;6.444;2023-02-28T16:25:17;7.10;80.70
60473;DHT22;46318;52.716;6.444;2023-02-28T16:27:48;7.10;80.90
60473;DHT22;46318;52.716;6.444;2023-02-28T16:30:20;7.10;81.10
60473;DHT22;46318;52.716;6.444;2023-02-28T16:32:52;7.00;81.70
60473;DHT22;46318;52.716;6.444;2023-02-28T16:35:22;7.00;82.00
60473;DHT22;46318;52.716;6.444;2023-02-28T16:37:52;7.00;82.50
60473;DHT22;46318;52.716;6.444;2023-02-28T16:40:24;6.90;82.90
60473;DHT22;46318;52.716;6.444;2023-02-28T16:42:53;6.90;83.60
60473;DHT22;46318;52.716;6.444;2023-02-28T16:45:26;6.90;84.30
60473;DHT22;46318;52.716;6.444;2023-02-28T16:47:53;6.90;84.30
60473;DHT22;46318;52.716;6.444;2023-02-28T16:50:30;6.90;84.60
60473;DHT22;46318;52.716;6.444;2023-02-28T16:52:58;6.80;85.20
60473;DHT22;46318;52.716;6.444;2023-02-28T16:55:24;6.80;85.10
60473;DHT22;46318;52.716;6.444;2023-02-28T16:57:56;6.80;85.00
60473;DHT22;46318;52.716;6.444;2023-02-28T17:00:24;6.70;85.10
60473;DHT22;46318;52.716;6.444;2023-02-28T17:02:51;6.70;85.80
60473;DHT22;46318;52.716;6.444;2023-02-28T17:05:17;6.70;86.20
60473;DHT22;46318;52.716;6.444;2023-02-28T17:07:45;6.70;86.50
60473;DHT22;46318;52.716;6.444;2023-02-28T17:10:21;6.60;86.50
60473;DHT22;46318;52.716;6.444;2023-02-28T17:12:48;6.60;86.90
60473;DHT22;46318;52.716;6.444;2023-02-28T17:15:16;6.50;87.20
60473;DHT22;46318;52.716;6.444;2023-02-28T17:17:44;6.50;87.30
60473;DHT22;46318;52.716;6.444;2023-02-28T17:20:13;6.40;87.70
60473;DHT22;46318;52.716;6.444;2023-02-28T17:22:50;6.40;88.00
60473;DHT22;46318;52.716;6.444;2023-02-28T17:25:16;6.40;88.50
60473;DHT22;46318;52.716;6.444;2023-02-28T17:27:43;6.40;88.80
60473;DHT22;46318;52.716;6.444;2023-02-28T17:30:15;6.30;89.10
60473;DHT22;46318;52.716;6.444;2023-02-28T17:32:43;6.30;89.30
60473;DHT22;46318;52.716;6.444;2023-02-28T17:35:09;6.20;89.50
60473;DHT22;46318;52.716;6.444;2023-02-28T17:37:35;6.20;89.90
60473;DHT22;46318;52.716;6.444;2023-02-28T17:40:02;6.20;90.10
60473;DHT22;46318;52.716;6.444;2023-02-28T17:42:28;6.10;90.30
60473;DHT22;46318;52.716;6.444;2023-02-28T17:44:54;6.10;90.40
60473;DHT22;46318;52.716;6.444;2023-02-28T17:47:20;6.10;90.60
60473;DHT22;46318;52.716;6.444;2023-02-28T17:49:45;6.00;90.70
60473;DHT22;46318;52.716;6.444;2023-02-28T17:52:11;5.90;90.80
60473;DHT22;46318;52.716;6.444;2023-02-28T17:54:37;5.90;90.90
60473;DHT22;46318;52.716;6.444;2023-02-28T17:57:03;5.80;91.00
60473;DHT22;46318;52.716;6.444;2023-02-28T17:59:29;5.80;91.20
60473;DHT22;46318;52.716;6.444;2023-02-28T18:02:00;5.70;91.50
60473;DHT22;46318;52.716;6.444;2023-02-28T18:04:26;5.70;91.70
60473;DHT22;46318;52.716;6.444;2023-02-28T18:06:53;5.60;91.80
60473;DHT22;46318;52.716;6.444;2023-02-28T18:09:25;5.50;92.00
60473;DHT22;46318;52.716;6.444;2023-02-28T18:11:53;5.50;92.30
60473;DHT22;46318;52.716;6.444;2023-02-28T18:14:21;5.40;92.40
60473;DHT22;46318;52.716;6.444;2023-02-28T18:16:49;5.30;92.60
60473;DHT22;46318;52.716;6.444;2023-02-28T18:19:16;5.30;92.80
60473;DHT22;46318;52.716;6.444;2023-02-28T18:21:49;5.20;92.90
60473;DHT22;46318;52.716;6.444;2023-02-28T18:24:18;5.10;93.10
60473;DHT22;46318;52.716;6.444;2023-02-28T18:26:45;5.10;93.10
60473;DHT22;46318;52.716;6.444;2023-02-28T18:29:21;5.10;93.20
60473;DHT22;46318;52.716;6.444;2023-02-28T18:31:48;5.00;93.30
60473;DHT22;46318;52.716;6.444;2023-02-28T18:34:14;5.00;93.30
60473;DHT22;46318;52.716;6.444;2023-02-28T18:36:40;4.90;93.40
60473;DHT22;46318;52.716;6.444;2023-02-28T18:39:07;4.90;93.50
60473;DHT22;46318;52.716;6.444;2023-02-28T18:41:36;4.80;93.70
60473;DHT22;46318;52.716;6.444;2023-02-28T18:44:02;4.70;93.80
60473;DHT22;46318;52.716;6.444;2023-02-28T18:46:28;4.70;93.80
60473;DHT22;46318;52.716;6.444;2023-02-28T18:48:54;4.70;93.90
60473;DHT22;46318;52.716;6.444;2023-02-28T18:51:23;4.60;93.90